sensor_id;sensor_type;location;lat;lon;timestamp;pressure;altitude;pressure_sealevel;temperature;humidity
63954;BME280;50128;52.094;5.232;2023-02-17T00:01:09;100578.0;;;3.18;100.0
63954;BME280;50128;52.094;5.232;2023-02-17T00:04:21;100578.0;;;3.16;100.0
63954;BME280;50128;52.094;5.232;2023-02-17T00:05:58;100580.0;;;3.14;100.0
63954;BME280;50128;52.094;5.232;2023-02-17T00:07:34;100580.0;;;3.13;100.0
63954;BME280;50128;52.094;5.232;2023-02-17T00:10:54;100581.0;;;3.09;100.0
63954;BME280;50128;52.094;5.232;2023-02-17T00:12:31;100570.0;;;3.07;100.0
63954;BME280;50128;52.094;5.232;2023-02-17T00:14:08;100571.0;;;3.18;100.0
63954;BME280;50128;52.094;5.232;2023-02-17T00:15:46;100561.0;;;3.19;100.0
63954;BME280;50128;52.094;5.232;2023-02-17T00:19:00;100564.0;;;3.14;100.0
63954;BME280;50128;52.094;5.232;2023-02-17T00:20:37;100563.0;;;3.12;100.0
63954;BME280;50128;52.094;5.232;2023-02-17T00:22:13;100562.0;;;3.17;100.0
63954;BME280;50128;52.094;5.232;2023-02-17T00:25:26;100565.0;;;3.2;100.0
63954;BME280;50128;52.094;5.232;2023-02-17T00:27:03;100562.0;;;3.19;100.0
63954;BME280;50128;52.094;5.232;2023-02-17T00:28:39;100562.0;;;3.2;100.0
63954;BME280;50128;52.094;5.232;2023-02-17T00:31:54;100566.0;;;3.14;100.0
63954;BME280;50128;52.094;5.232;2023-02-17T00:33:30;100568.0;;;3.1;100.0
63954;BME280;50128;52.094;5.232;2023-02-17T00:35:07;100566.0;;;3.13;100.0
63954;BME280;50128;52.094;5.232;2023-02-17T00:36:43;100571.0;;;3.13;100.0
63954;BME280;50128;52.094;5.232;2023-02-17T00:39:57;100561.0;;;3.13;100.0
63954;BME280;50128;52.094;5.232;2023-02-17T00:41:33;100569.0;;;3.1;100.0
63954;BME280;50128;52.094;5.232;2023-02-17T00:43:10;100570.0;;;3.1;100.0
63954;BME280;50128;52.094;5.232;2023-02-17T00:46:22;100569.0;;;3.16;100.0
63954;BME280;50128;52.094;5.232;2023-02-17T00:47:59;100564.0;;;3.19;100.0
63954;BME280;50128;52.094;5.232;2023-02-17T00:49:36;100565.0;;;3.23;100.0
63954;BME280;50128;52.094;5.232;2023-02-17T00:52:51;100566.0;;;3.15;100.0
63954;BME280;50128;52.094;5.232;2023-02-17T00:54:27;100568.0;;;3.05;100.0
63954;BME280;50128;52.094;5.232;2023-02-17T00:56:05;100569.0;;;2.97;100.0
63954;BME280;50128;52.094;5.232;2023-02-17T00:57:41;100561.0;;;3.01;100.0
63954;BME280;50128;52.094;5.232;2023-02-17T01:00:54;100561.0;;;3.0;100.0
63954;BME280;50128;52.094;5.232;2023-02-17T01:02:31;100559.0;;;2.89;100.0
63954;BME280;50128;52.094;5.232;2023-02-17T01:04:07;100558.0;;;2.82;100.0
63954;BME280;50128;52.094;5.232;2023-02-17T01:07:23;100552.0;;;2.8;100.0
63954;BME280;50128;52.094;5.232;2023-02-17T01:08:59;100550.0;;;2.78;100.0
63954;BME280;50128;52.094;5.232;2023-02-17T01:10:37;100551.0;;;2.8;100.0
63954;BME280;50128;52.094;5.232;2023-02-17T01:12:16;100553.0;;;2.87;100.0
63954;BME280;50128;52.094;5.232;2023-02-17T01:15:36;100549.0;;;2.82;100.0
63954;BME280;50128;52.094;5.232;2023-02-17T01:17:13;100552.0;;;2.84;100.0
63954;BME280;50128;52.094;5.232;2023-02-17T01:18:49;100551.0;;;2.91;100.0
63954;BME280;50128;52.094;5.232;2023-02-17T01:22:02;100551.0;;;2.83;100.0
63954;BME280;50128;52.094;5.232;2023-02-17T01:23:38;100555.0;;;2.88;100.0
63954;BME280;50128;52.094;5.232;2023-02-17T01:25:14;100553.0;;;2.84;100.0
63954;BME280;50128;52.094;5.232;2023-02-17T01:26:51;100564.0;;;2.86;100.0
63954;BME280;50128;52.094;5.232;2023-02-17T01:30:06;100555.0;;;2.82;100.0
63954;BME280;50128;52.094;5.232;2023-02-17T01:31:43;100552.0;;;2.78;100.0
63954;BME280;50128;52.094;5.232;2023-02-17T01:33:19;100560.0;;;2.7;100.0
63954;BME280;50128;52.094;5.232;2023-02-17T01:36:31;100560.0;;;2.64;100.0
63954;BME280;50128;52.094;5.232;2023-02-17T01:38:08;100569.0;;;2.56;100.0
63954;BME280;50128;52.094;5.232;2023-02-17T01:39:45;100571.0;;;2.57;100.0
63954;BME280;50128;52.094;5.232;2023-02-17T01:43:00;100561.0;;;2.52;100.0
63954;BME280;50128;52.094;5.232;2023-02-17T01:46:07;100572.0;;;2.5;100.0
63954;BME280;50128;52.094;5.232;2023-02-17T01:47:44;100559.0;;;2.46;100.0
63954;BME280;50128;52.094;5.232;2023-02-17T01:51:09;100555.0;;;2.52;100.0
63954;BME280;50128;52.094;5.232;2023-02-17T01:52:49;100557.0;;;2.36;100.0
63954;BME280;50128;52.094;5.232;2023-02-17T01:54:32;100561.0;;;2.35;100.0
63954;BME280;50128;52.094;5.232;2023-02-17T01:56:11;100562.0;;;2.25;100.0
63954;BME280;50128;52.094;5.232;2023-02-17T01:59:29;100560.0;;;2.31;100.0
63954;BME280;50128;52.094;5.232;2023-02-17T02:01:06;100556.0;;;2.31;100.0
63954;BME280;50128;52.094;5.232;2023-02-17T02:02:44;100564.0;;;2.35;100.0
63954;BME280;50128;52.094;5.232;2023-02-17T02:06:11;100549.0;;;2.33;100.0
63954;BME280;50128;52.094;5.232;2023-02-17T02:07:51;100549.0;;;2.34;100.0
63954;BME280;50128;52.094;5.232;2023-02-17T02:09:31;100539.0;;;2.27;100.0
63954;BME280;50128;52.094;5.232;2023-02-17T02:11:10;100530.0;;;2.32;100.0
63954;BME280;50128;52.094;5.232;2023-02-17T02:14:23;100530.0;;;2.32;100.0
63954;BME280;50128;52.094;5.232;2023-02-17T02:16:05;100531.0;;;2.21;100.0
63954;BME280;50128;52.094;5.232;2023-02-17T02:18:02;100527.0;;;2.23;100.0
63954;BME280;50128;52.094;5.232;2023-02-17T02:20:22;100517.0;;;2.21;100.0
63954;BME280;50128;52.094;5.232;2023-02-17T02:23:29;100508.0;;;2.27;100.0
63954;BME280;50128;52.094;5.232;2023-02-17T02:25:44;100500.0;;;2.31;100.0
63954;BME280;50128;52.094;5.232;2023-02-17T02:27:43;100498.0;;;2.31;100.0
63954;BME280;50128;52.094;5.232;2023-02-17T02:33:20;100500.0;;;2.39;100.0
63954;BME280;50128;52.094;5.232;2023-02-17T02:35:05;100500.0;;;2.42;100.0
63954;BME280;50128;52.094;5.232;2023-02-17T02:36:46;100496.0;;;2.5;100.0
63954;BME280;50128;52.094;5.232;2023-02-17T02:38:31;100496.0;;;2.46;100.0
63954;BME280;50128;52.094;5.232;2023-02-17T02:40:14;100500.0;;;2.4;100.0
63954;BME280;50128;52.094;5.232;2023-02-17T02:43:32;100492.0;;;2.39;100.0
63954;BME280;50128;52.094;5.232;2023-02-17T02:45:10;100496.0;;;2.41;100.0
63954;BME280;50128;52.094;5.232;2023-02-17T02:46:55;100486.0;;;2.32;100.0
63954;BME280;50128;52.094;5.232;2023-02-17T02:48:32;100490.0;;;2.44;100.0
63954;BME280;50128;52.094;5.232;2023-02-17T02:51:54;100492.0;;;2.35;100.0
63954;BME280;50128;52.094;5.232;2023-02-17T02:53:44;100487.0;;;2.33;100.0
63954;BME280;50128;52.094;5.232;2023-02-17T02:55:46;100481.0;;;2.39;100.0
63954;BME280;50128;52.094;5.232;2023-02-17T02:57:36;100484.0;;;2.38;100.0
63954;BME280;50128;52.094;5.232;2023-02-17T02:59:29;100480.0;;;2.33;100.0
63954;BME280;50128;52.094;5.232;2023-02-17T03:01:17;100482.0;;;2.35;100.0
63954;BME280;50128;52.094;5.232;2023-02-17T03:04:49;100494.0;;;2.27;100.0
63954;BME280;50128;52.094;5.232;2023-02-17T03:06:35;100489.0;;;2.31;100.0
63954;BME280;50128;52.094;5.232;2023-02-17T03:08:19;100478.0;;;2.32;100.0
63954;BME280;50128;52.094;5.232;2023-02-17T03:10:01;100472.0;;;2.36;100.0
63954;BME280;50128;52.094;5.232;2023-02-17T03:11:38;100484.0;;;2.44;100.0
63954;BME280;50128;52.094;5.232;2023-02-17T03:14:57;100484.0;;;2.44;100.0
63954;BME280;50128;52.094;5.232;2023-02-17T03:16:37;100478.0;;;2.48;100.0
63954;BME280;50128;52.094;5.232;2023-02-17T03:18:14;100478.0;;;2.41;100.0
63954;BME280;50128;52.094;5.232;2023-02-17T03:19:50;100473.0;;;2.48;100.0
63954;BME280;50128;52.094;5.232;2023-02-17T03:23:12;100477.0;;;2.35;100.0
63954;BME280;50128;52.094;5.232;2023-02-17T03:24:48;100475.0;;;2.4;100.0
63954;BME280;50128;52.094;5.232;2023-02-17T03:26:25;100466.0;;;2.39;100.0
63954;BME280;50128;52.094;5.232;2023-02-17T03:29:37;100466.0;;;2.42;100.0
63954;BME280;50128;52.094;5.232;2023-02-17T03:31:14;100453.0;;;2.35;100.0
63954;BME280;50128;52.094;5.232;2023-02-17T03:32:50;100447.0;;;2.4;100.0
63954;BME280;50128;52.094;5.232;2023-02-17T03:34:26;100444.0;;;2.46;100.0
63954;BME280;50128;52.094;5.232;2023-02-17T03:37:40;100436.0;;;2.42;100.0
63954;BME280;50128;52.094;5.232;2023-02-17T03:39:16;100424.0;;;2.36;100.0
63954;BME280;50128;52.094;5.232;2023-02-17T03:40:52;100425.0;;;2.48;100.0
63954;BME280;50128;52.094;5.232;2023-02-17T03:44:06;100433.0;;;2.46;100.0
63954;BME280;50128;52.094;5.232;2023-02-17T03:45:42;100427.0;;;2.48;100.0
63954;BME280;50128;52.094;5.232;2023-02-17T03:47:19;100430.0;;;2.48;100.0
63954;BME280;50128;52.094;5.232;2023-02-17T03:50:31;100428.0;;;2.44;100.0
63954;BME280;50128;52.094;5.232;2023-02-17T03:52:07;100430.0;;;2.48;100.0
63954;BME280;50128;52.094;5.232;2023-02-17T03:53:44;100428.0;;;2.52;100.0
63954;BME280;50128;52.094;5.232;2023-02-17T03:55:21;100438.0;;;2.52;100.0
63954;BME280;50128;52.094;5.232;2023-02-17T03:58:35;100432.0;;;2.61;100.0
63954;BME280;50128;52.094;5.232;2023-02-17T04:00:11;100425.0;;;2.65;100.0
63954;BME280;50128;52.094;5.232;2023-02-17T04:01:48;100428.0;;;2.54;100.0
63954;BME280;50128;52.094;5.232;2023-02-17T04:05:00;100421.0;;;2.65;100.0
63954;BME280;50128;52.094;5.232;2023-02-17T04:06:37;100427.0;;;2.69;100.0
63954;BME280;50128;52.094;5.232;2023-02-17T04:08:13;100431.0;;;2.76;100.0
63954;BME280;50128;52.094;5.232;2023-02-17T04:11:26;100424.0;;;2.78;100.0
63954;BME280;50128;52.094;5.232;2023-02-17T04:13:02;100433.0;;;2.72;100.0
63954;BME280;50128;52.094;5.232;2023-02-17T04:14:38;100431.0;;;2.75;100.0
63954;BME280;50128;52.094;5.232;2023-02-17T04:17:50;100431.0;;;2.78;100.0
63954;BME280;50128;52.094;5.232;2023-02-17T04:19:26;100434.0;;;2.75;100.0
63954;BME280;50128;52.094;5.232;2023-02-17T04:21:03;100438.0;;;2.8;100.0
63954;BME280;50128;52.094;5.232;2023-02-17T04:22:40;100442.0;;;2.84;100.0
63954;BME280;50128;52.094;5.232;2023-02-17T04:25:53;100448.0;;;2.9;100.0
63954;BME280;50128;52.094;5.232;2023-02-17T04:27:29;100445.0;;;2.88;100.0
63954;BME280;50128;52.094;5.232;2023-02-17T04:29:05;100436.0;;;2.78;100.0
63954;BME280;50128;52.094;5.232;2023-02-17T04:32:19;100439.0;;;2.79;100.0
63954;BME280;50128;52.094;5.232;2023-02-17T04:33:55;100432.0;;;2.81;100.0
63954;BME280;50128;52.094;5.232;2023-02-17T04:35:32;100424.0;;;2.74;100.0
63954;BME280;50128;52.094;5.232;2023-02-17T04:38:44;100419.0;;;2.81;100.0
63954;BME280;50128;52.094;5.232;2023-02-17T04:40:20;100411.0;;;2.81;100.0
63954;BME280;50128;52.094;5.232;2023-02-17T04:41:57;100412.0;;;2.83;100.0
63954;BME280;50128;52.094;5.232;2023-02-17T04:43:33;100426.0;;;2.88;100.0
63954;BME280;50128;52.094;5.232;2023-02-17T04:46:47;100419.0;;;2.87;100.0
63954;BME280;50128;52.094;5.232;2023-02-17T04:48:24;100420.0;;;2.79;100.0
63954;BME280;50128;52.094;5.232;2023-02-17T04:50:01;100415.0;;;2.75;100.0
63954;BME280;50128;52.094;5.232;2023-02-17T04:53:16;100412.0;;;2.78;100.0
63954;BME280;50128;52.094;5.232;2023-02-17T04:54:53;100407.0;;;2.77;100.0
63954;BME280;50128;52.094;5.232;2023-02-17T04:56:29;100409.0;;;2.73;100.0
63954;BME280;50128;52.094;5.232;2023-02-17T04:58:06;100409.0;;;2.77;100.0
63954;BME280;50128;52.094;5.232;2023-02-17T05:01:20;100407.0;;;2.81;100.0
63954;BME280;50128;52.094;5.232;2023-02-17T05:02:56;100416.0;;;2.78;100.0
63954;BME280;50128;52.094;5.232;2023-02-17T05:04:33;100417.0;;;2.8;100.0
63954;BME280;50128;52.094;5.232;2023-02-17T05:07:47;100412.0;;;2.89;100.0
63954;BME280;50128;52.094;5.232;2023-02-17T05:09:23;100416.0;;;2.87;100.0
63954;BME280;50128;52.094;5.232;2023-02-17T05:11:00;100426.0;;;2.85;100.0
63954;BME280;50128;52.094;5.232;2023-02-17T05:14:13;100434.0;;;2.89;100.0
63954;BME280;50128;52.094;5.232;2023-02-17T05:15:49;100440.0;;;2.92;100.0
63954;BME280;50128;52.094;5.232;2023-02-17T05:17:25;100436.0;;;2.84;100.0
63954;BME280;50128;52.094;5.232;2023-02-17T05:19:02;100439.0;;;2.8;100.0
63954;BME280;50128;52.094;5.232;2023-02-17T05:22:15;100442.0;;;2.78;100.0
63954;BME280;50128;52.094;5.232;2023-02-17T05:23:52;100432.0;;;2.8;100.0
63954;BME280;50128;52.094;5.232;2023-02-17T05:25:28;100424.0;;;2.85;100.0
63954;BME280;50128;52.094;5.232;2023-02-17T05:28:41;100419.0;;;2.84;100.0
63954;BME280;50128;52.094;5.232;2023-02-17T05:30:17;100412.0;;;2.85;100.0
63954;BME280;50128;52.094;5.232;2023-02-17T05:31:54;100423.0;;;2.91;100.0
63954;BME280;50128;52.094;5.232;2023-02-17T05:35:07;100435.0;;;2.88;100.0
63954;BME280;50128;52.094;5.232;2023-02-17T05:36:44;100416.0;;;2.87;100.0
63954;BME280;50128;52.094;5.232;2023-02-17T05:38:21;100430.0;;;2.94;100.0
63954;BME280;50128;52.094;5.232;2023-02-17T05:39:57;100422.0;;;2.95;100.0
63954;BME280;50128;52.094;5.232;2023-02-17T05:43:09;100410.0;;;2.96;100.0
63954;BME280;50128;52.094;5.232;2023-02-17T05:44:45;100418.0;;;2.83;100.0
63954;BME280;50128;52.094;5.232;2023-02-17T05:46:22;100423.0;;;2.84;100.0
63954;BME280;50128;52.094;5.232;2023-02-17T05:49:34;100421.0;;;2.79;100.0
63954;BME280;50128;52.094;5.232;2023-02-17T05:51:12;100418.0;;;2.86;100.0
63954;BME280;50128;52.094;5.232;2023-02-17T05:52:49;100412.0;;;2.9;100.0
63954;BME280;50128;52.094;5.232;2023-02-17T05:56:01;100410.0;;;2.82;100.0
63954;BME280;50128;52.094;5.232;2023-02-17T05:57:37;100403.0;;;2.85;100.0
63954;BME280;50128;52.094;5.232;2023-02-17T05:59:14;100407.0;;;2.84;100.0
63954;BME280;50128;52.094;5.232;2023-02-17T06:02:26;100407.0;;;2.91;100.0
63954;BME280;50128;52.094;5.232;2023-02-17T06:04:02;100398.0;;;2.87;100.0
63954;BME280;50128;52.094;5.232;2023-02-17T06:05:38;100400.0;;;2.96;100.0
63954;BME280;50128;52.094;5.232;2023-02-17T06:07:15;100405.0;;;2.93;100.0
63954;BME280;50128;52.094;5.232;2023-02-17T06:10:27;100406.0;;;2.9;100.0
63954;BME280;50128;52.094;5.232;2023-02-17T06:12:05;100399.0;;;2.83;100.0
63954;BME280;50128;52.094;5.232;2023-02-17T06:13:41;100407.0;;;2.97;100.0
63954;BME280;50128;52.094;5.232;2023-02-17T06:16:55;100399.0;;;2.98;100.0
63954;BME280;50128;52.094;5.232;2023-02-17T06:18:32;100398.0;;;2.94;100.0
63954;BME280;50128;52.094;5.232;2023-02-17T06:20:09;100408.0;;;2.96;100.0
63954;BME280;50128;52.094;5.232;2023-02-17T06:23:22;100397.0;;;2.93;100.0
63954;BME280;50128;52.094;5.232;2023-02-17T06:24:59;100387.0;;;3.01;100.0
63954;BME280;50128;52.094;5.232;2023-02-17T06:26:35;100386.0;;;3.09;100.0
63954;BME280;50128;52.094;5.232;2023-02-17T06:28:11;100385.0;;;3.01;100.0
63954;BME280;50128;52.094;5.232;2023-02-17T06:31:24;100405.0;;;3.01;100.0
63954;BME280;50128;52.094;5.232;2023-02-17T06:33:00;100394.0;;;2.99;100.0
63954;BME280;50128;52.094;5.232;2023-02-17T06:34:37;100393.0;;;3.04;100.0
63954;BME280;50128;52.094;5.232;2023-02-17T06:37:49;100387.0;;;3.02;100.0
63954;BME280;50128;52.094;5.232;2023-02-17T06:39:26;100383.0;;;3.0;100.0
63954;BME280;50128;52.094;5.232;2023-02-17T06:41:02;100364.0;;;3.01;100.0
63954;BME280;50128;52.094;5.232;2023-02-17T06:44:15;100364.0;;;2.94;100.0
63954;BME280;50128;52.094;5.232;2023-02-17T06:45:52;100364.0;;;2.98;100.0
63954;BME280;50128;52.094;5.232;2023-02-17T06:47:28;100368.0;;;3.01;100.0
63954;BME280;50128;52.094;5.232;2023-02-17T06:49:04;100369.0;;;3.11;100.0
63954;BME280;50128;52.094;5.232;2023-02-17T06:52:17;100367.0;;;3.12;100.0
63954;BME280;50128;52.094;5.232;2023-02-17T06:53:54;100366.0;;;3.14;100.0
63954;BME280;50128;52.094;5.232;2023-02-17T06:55:30;100364.0;;;3.03;100.0
63954;BME280;50128;52.094;5.232;2023-02-17T06:58:43;100370.0;;;3.13;100.0
63954;BME280;50128;52.094;5.232;2023-02-17T07:00:20;100356.0;;;3.09;100.0
63954;BME280;50128;52.094;5.232;2023-02-17T07:01:57;100360.0;;;3.06;100.0
63954;BME280;50128;52.094;5.232;2023-02-17T07:05:09;100357.0;;;3.09;100.0
63954;BME280;50128;52.094;5.232;2023-02-17T07:06:45;100362.0;;;3.09;100.0
63954;BME280;50128;52.094;5.232;2023-02-17T07:08:22;100347.0;;;3.09;100.0
63954;BME280;50128;52.094;5.232;2023-02-17T07:09:58;100346.0;;;3.09;100.0
63954;BME280;50128;52.094;5.232;2023-02-17T07:13:10;100357.0;;;3.13;100.0
63954;BME280;50128;52.094;5.232;2023-02-17T07:14:46;100359.0;;;3.12;100.0
63954;BME280;50128;52.094;5.232;2023-02-17T07:16:22;100362.0;;;3.22;100.0
63954;BME280;50128;52.094;5.232;2023-02-17T07:19:37;100364.0;;;3.28;100.0
63954;BME280;50128;52.094;5.232;2023-02-17T07:21:13;100380.0;;;3.29;100.0
63954;BME280;50128;52.094;5.232;2023-02-17T07:22:49;100397.0;;;3.24;100.0
63954;BME280;50128;52.094;5.232;2023-02-17T07:26:03;100394.0;;;3.24;100.0
63954;BME280;50128;52.094;5.232;2023-02-17T07:27:40;100386.0;;;3.24;100.0
63954;BME280;50128;52.094;5.232;2023-02-17T07:29:16;100384.0;;;3.26;100.0
63954;BME280;50128;52.094;5.232;2023-02-17T07:30:52;100385.0;;;3.36;100.0
63954;BME280;50128;52.094;5.232;2023-02-17T07:34:05;100397.0;;;3.31;100.0
63954;BME280;50128;52.094;5.232;2023-02-17T07:35:43;100385.0;;;3.36;100.0
63954;BME280;50128;52.094;5.232;2023-02-17T07:37:20;100380.0;;;3.37;100.0
63954;BME280;50128;52.094;5.232;2023-02-17T07:40:32;100375.0;;;3.39;100.0
63954;BME280;50128;52.094;5.232;2023-02-17T07:42:09;100362.0;;;3.42;100.0
63954;BME280;50128;52.094;5.232;2023-02-17T07:43:45;100358.0;;;3.47;100.0
63954;BME280;50128;52.094;5.232;2023-02-17T07:46:59;100366.0;;;3.49;100.0
63954;BME280;50128;52.094;5.232;2023-02-17T07:48:36;100360.0;;;3.5;100.0
63954;BME280;50128;52.094;5.232;2023-02-17T07:50:12;100364.0;;;3.56;100.0
63954;BME280;50128;52.094;5.232;2023-02-17T08:05:25;100380.0;;;3.68;100.0
63954;BME280;50128;52.094;5.232;2023-02-17T08:07:01;100380.0;;;3.63;100.0
63954;BME280;50128;52.094;5.232;2023-02-17T08:13:34;100380.0;;;3.69;100.0
63954;BME280;50128;52.094;5.232;2023-02-17T08:15:11;100408.0;;;3.71;100.0
63954;BME280;50128;52.094;5.232;2023-02-17T08:18:25;100409.0;;;3.75;100.0
63954;BME280;50128;52.094;5.232;2023-02-17T08:20:02;100403.0;;;3.75;100.0
63954;BME280;50128;52.094;5.232;2023-02-17T08:21:38;100406.0;;;3.79;100.0
63954;BME280;50128;52.094;5.232;2023-02-17T08:23:14;100408.0;;;3.76;100.0
63954;BME280;50128;52.094;5.232;2023-02-17T08:26:27;100410.0;;;3.79;100.0
63954;BME280;50128;52.094;5.232;2023-02-17T08:29:40;100411.0;;;3.84;100.0
63954;BME280;50128;52.094;5.232;2023-02-17T08:32:56;100406.0;;;3.79;100.0
63954;BME280;50128;52.094;5.232;2023-02-17T08:34:33;100411.0;;;3.87;100.0
63954;BME280;50128;52.094;5.232;2023-02-17T08:36:10;100403.0;;;3.83;100.0
63954;BME280;50128;52.094;5.232;2023-02-17T08:37:47;100406.0;;;3.78;100.0
63954;BME280;50128;52.094;5.232;2023-02-17T08:41:11;100420.0;;;3.85;100.0
63954;BME280;50128;52.094;5.232;2023-02-17T08:42:47;100430.0;;;3.78;100.0
63954;BME280;50128;52.094;5.232;2023-02-17T08:44:23;100430.0;;;3.83;100.0
63954;BME280;50128;52.094;5.232;2023-02-17T08:47:36;100428.0;;;3.8;100.0
63954;BME280;50128;52.094;5.232;2023-02-17T08:49:13;100430.0;;;3.77;100.0
63954;BME280;50128;52.094;5.232;2023-02-17T08:50:51;100427.0;;;3.78;100.0
63954;BME280;50128;52.094;5.232;2023-02-17T08:52:27;100426.0;;;3.82;100.0
63954;BME280;50128;52.094;5.232;2023-02-17T08:55:42;100439.0;;;3.84;100.0
63954;BME280;50128;52.094;5.232;2023-02-17T08:57:19;100428.0;;;3.89;100.0
63954;BME280;50128;52.094;5.232;2023-02-17T08:58:57;100432.0;;;3.88;100.0
63954;BME280;50128;52.094;5.232;2023-02-17T09:02:09;100419.0;;;3.98;100.0
63954;BME280;50128;52.094;5.232;2023-02-17T09:03:47;100430.0;;;3.88;100.0
63954;BME280;50128;52.094;5.232;2023-02-17T09:05:24;100430.0;;;3.85;100.0
63954;BME280;50128;52.094;5.232;2023-02-17T09:08:38;100425.0;;;3.89;100.0
63954;BME280;50128;52.094;5.232;2023-02-17T09:10:16;100439.0;;;3.94;100.0
63954;BME280;50128;52.094;5.232;2023-02-17T09:11:56;100428.0;;;3.97;100.0
63954;BME280;50128;52.094;5.232;2023-02-17T09:13:32;100438.0;;;3.99;100.0
63954;BME280;50128;52.094;5.232;2023-02-17T09:16:45;100425.0;;;4.01;100.0
63954;BME280;50128;52.094;5.232;2023-02-17T09:18:22;100437.0;;;4.01;100.0
63954;BME280;50128;52.094;5.232;2023-02-17T09:19:58;100430.0;;;4.04;100.0
63954;BME280;50128;52.094;5.232;2023-02-17T09:23:12;100436.0;;;4.03;100.0
63954;BME280;50128;52.094;5.232;2023-02-17T09:24:48;100443.0;;;4.07;100.0
63954;BME280;50128;52.094;5.232;2023-02-17T09:26:24;100443.0;;;4.12;100.0
63954;BME280;50128;52.094;5.232;2023-02-17T09:28:00;100443.0;;;4.1;100.0
63954;BME280;50128;52.094;5.232;2023-02-17T09:31:16;100428.0;;;4.12;100.0
63954;BME280;50128;52.094;5.232;2023-02-17T09:32:54;100431.0;;;4.08;100.0
63954;BME280;50128;52.094;5.232;2023-02-17T09:34:34;100424.0;;;4.1;100.0
63954;BME280;50128;52.094;5.232;2023-02-17T09:37:50;100425.0;;;4.08;100.0
63954;BME280;50128;52.094;5.232;2023-02-17T09:39:27;100423.0;;;4.12;100.0
63954;BME280;50128;52.094;5.232;2023-02-17T09:41:08;100411.0;;;4.08;100.0
63954;BME280;50128;52.094;5.232;2023-02-17T09:42:50;100437.0;;;4.16;100.0
63954;BME280;50128;52.094;5.232;2023-02-17T09:46:21;100431.0;;;4.18;100.0
63954;BME280;50128;52.094;5.232;2023-02-17T09:48:03;100421.0;;;4.22;100.0
63954;BME280;50128;52.094;5.232;2023-02-17T09:49:44;100430.0;;;4.2;100.0
63954;BME280;50128;52.094;5.232;2023-02-17T09:51:27;100426.0;;;4.17;100.0
63954;BME280;50128;52.094;5.232;2023-02-17T09:53:07;100431.0;;;4.13;100.0
63954;BME280;50128;52.094;5.232;2023-02-17T09:56:39;100433.0;;;4.09;100.0
63954;BME280;50128;52.094;5.232;2023-02-17T09:58:19;100423.0;;;4.1;100.0
63954;BME280;50128;52.094;5.232;2023-02-17T10:00:01;100430.0;;;4.18;100.0
63954;BME280;50128;52.094;5.232;2023-02-17T10:01:43;100422.0;;;4.17;100.0
63954;BME280;50128;52.094;5.232;2023-02-17T10:05:08;100426.0;;;4.21;100.0
63954;BME280;50128;52.094;5.232;2023-02-17T10:06:50;100425.0;;;4.22;100.0
63954;BME280;50128;52.094;5.232;2023-02-17T10:08:31;100436.0;;;4.2;100.0
63954;BME280;50128;52.094;5.232;2023-02-17T10:10:13;100438.0;;;4.25;100.0
63954;BME280;50128;52.094;5.232;2023-02-17T10:13:36;100438.0;;;4.33;100.0
63954;BME280;50128;52.094;5.232;2023-02-17T10:15:20;100427.0;;;4.26;100.0
63954;BME280;50128;52.094;5.232;2023-02-17T10:17:01;100422.0;;;4.2;100.0
63954;BME280;50128;52.094;5.232;2023-02-17T10:18:45;100449.0;;;4.2;100.0
63954;BME280;50128;52.094;5.232;2023-02-17T10:20:27;100449.0;;;4.25;100.0
63954;BME280;50128;52.094;5.232;2023-02-17T10:23:50;100448.0;;;4.25;100.0
63954;BME280;50128;52.094;5.232;2023-02-17T10:25:40;100450.0;;;4.2;100.0
63954;BME280;50128;52.094;5.232;2023-02-17T10:27:34;100450.0;;;4.13;100.0
63954;BME280;50128;52.094;5.232;2023-02-17T10:29:19;100447.0;;;4.05;100.0
63954;BME280;50128;52.094;5.232;2023-02-17T10:31:10;100447.0;;;4.12;100.0
63954;BME280;50128;52.094;5.232;2023-02-17T10:34:37;100453.0;;;4.16;100.0
63954;BME280;50128;52.094;5.232;2023-02-17T10:36:24;100452.0;;;4.13;100.0
63954;BME280;50128;52.094;5.232;2023-02-17T10:38:14;100450.0;;;4.25;100.0
63954;BME280;50128;52.094;5.232;2023-02-17T10:39:53;100444.0;;;4.2;100.0
63954;BME280;50128;52.094;5.232;2023-02-17T10:41:34;100452.0;;;4.14;100.0
63954;BME280;50128;52.094;5.232;2023-02-17T10:45:03;100439.0;;;4.12;100.0
63954;BME280;50128;52.094;5.232;2023-02-17T10:46:48;100448.0;;;4.17;100.0
63954;BME280;50128;52.094;5.232;2023-02-17T10:48:33;100440.0;;;4.24;100.0
63954;BME280;50128;52.094;5.232;2023-02-17T10:50:16;100447.0;;;4.25;100.0
63954;BME280;50128;52.094;5.232;2023-02-17T10:51:58;100447.0;;;4.24;100.0
63954;BME280;50128;52.094;5.232;2023-02-17T10:55:20;100451.0;;;4.34;100.0
63954;BME280;50128;52.094;5.232;2023-02-17T10:57:07;100450.0;;;4.29;100.0
63954;BME280;50128;52.094;5.232;2023-02-17T10:58:49;100455.0;;;4.36;100.0
63954;BME280;50128;52.094;5.232;2023-02-17T11:00:31;100457.0;;;4.3;100.0
63954;BME280;50128;52.094;5.232;2023-02-17T11:02:17;100472.0;;;4.24;100.0
63954;BME280;50128;52.094;5.232;2023-02-17T11:05:40;100484.0;;;4.41;100.0
63954;BME280;50128;52.094;5.232;2023-02-17T11:07:21;100481.0;;;4.24;100.0
63954;BME280;50128;52.094;5.232;2023-02-17T11:09:17;100487.0;;;4.37;100.0
63954;BME280;50128;52.094;5.232;2023-02-17T11:10:59;100478.0;;;4.41;100.0
63954;BME280;50128;52.094;5.232;2023-02-17T11:12:38;100484.0;;;4.34;100.0
63954;BME280;50128;52.094;5.232;2023-02-17T11:16:00;100477.0;;;4.3;100.0
63954;BME280;50128;52.094;5.232;2023-02-17T11:17:37;100482.0;;;4.26;100.0
63954;BME280;50128;52.094;5.232;2023-02-17T11:19:21;100492.0;;;4.32;100.0
63954;BME280;50128;52.094;5.232;2023-02-17T11:21:01;100491.0;;;4.32;100.0
63954;BME280;50128;52.094;5.232;2023-02-17T11:24:19;100480.0;;;4.28;100.0
63954;BME280;50128;52.094;5.232;2023-02-17T11:26:00;100487.0;;;4.22;100.0
63954;BME280;50128;52.094;5.232;2023-02-17T11:27:37;100492.0;;;4.28;100.0
63954;BME280;50128;52.094;5.232;2023-02-17T11:30:54;100489.0;;;4.26;100.0
63954;BME280;50128;52.094;5.232;2023-02-17T11:32:33;100495.0;;;4.2;100.0
63954;BME280;50128;52.094;5.232;2023-02-17T11:34:11;100482.0;;;4.22;100.0
63954;BME280;50128;52.094;5.232;2023-02-17T11:35:51;100496.0;;;4.2;100.0
63954;BME280;50128;52.094;5.232;2023-02-17T11:39:18;100531.0;;;4.1;100.0
63954;BME280;50128;52.094;5.232;2023-02-17T11:40:57;100525.0;;;4.14;100.0